createdAt,value
2023-02-06T00:01:17.390Z,35.43
2023-02-06T00:03:44.753Z,27.03
2023-02-06T00:06:12.170Z,25.80
2023-02-06T00:08:39.533Z,32.10
2023-02-06T00:11:08.234Z,29.00
2023-02-06T00:13:37.257Z,30.07
2023-02-06T00:16:04.743Z,31.47
2023-02-06T00:18:32.158Z,31.73
2023-02-06T00:20:59.480Z,31.80
2023-02-06T00:23:26.814Z,32.90
2023-02-06T00:25:54.134Z,27.63
2023-02-06T00:28:21.478Z,31.97
2023-02-06T00:30:50.200Z,26.90
2023-02-06T00:33:17.562Z,32.33
2023-02-06T00:35:44.865Z,34.87
2023-02-06T00:38:12.507Z,27.43
2023-02-06T00:40:39.922Z,39.20
2023-02-06T00:43:07.261Z,34.10
2023-02-06T00:45:35.180Z,31.67
2023-02-06T00:48:04.497Z,28.37
2023-02-06T00:50:31.840Z,30.83
2023-02-06T00:52:59.174Z,35.60
2023-02-06T00:55:26.516Z,29.43
2023-02-06T00:57:53.856Z,31.97
2023-02-06T01:00:21.293Z,31.43
2023-02-06T01:02:48.738Z,30.60
2023-02-06T01:05:17.518Z,34.47
2023-02-06T01:07:45.092Z,29.53
2023-02-06T01:10:12.959Z,27.90
2023-02-06T01:12:40.409Z,27.53
2023-02-06T01:15:08.449Z,30.23
2023-02-06T01:17:35.817Z,29.20
2023-02-06T01:20:03.133Z,28.27
2023-02-06T01:22:33.588Z,25.80
2023-02-06T01:25:00.932Z,21.63
2023-02-06T01:27:28.289Z,22.40
2023-02-06T01:29:55.652Z,25.90
2023-02-06T01:32:23.013Z,23.60
2023-02-06T01:34:50.328Z,26.43
2023-02-06T01:37:17.648Z,27.20
2023-02-06T01:39:46.333Z,26.73
2023-02-06T01:42:14.348Z,28.10
2023-02-06T01:44:42.821Z,26.97
2023-02-06T01:47:10.764Z,25.80
2023-02-06T01:49:39.171Z,27.00
2023-02-06T01:52:10.605Z,28.27
2023-02-06T01:54:38.041Z,25.63
2023-02-06T01:57:07.904Z,25.67
2023-02-06T01:59:35.601Z,27.60
2023-02-06T02:02:03.387Z,26.43
2023-02-06T02:04:32.833Z,28.90
2023-02-06T02:07:05.890Z,28.90
2023-02-06T02:09:34.507Z,28.63
2023-02-06T02:12:01.924Z,21.83
2023-02-06T02:14:30.807Z,26.53
2023-02-06T02:17:04.238Z,22.73
2023-02-06T02:19:46.488Z,28.83
2023-02-06T02:22:40.708Z,27.07
2023-02-06T02:25:26.577Z,25.67
2023-02-06T02:28:04.818Z,24.67
2023-02-06T02:30:50.804Z,30.00
2023-02-06T02:33:27.319Z,25.93
2023-02-06T02:35:56.501Z,27.33
2023-02-06T02:38:30.520Z,25.73
2023-02-06T02:41:00.474Z,27.73
2023-02-06T02:43:31.756Z,24.07
2023-02-06T02:46:02.092Z,26.37
2023-02-06T02:48:31.413Z,27.40
2023-02-06T02:51:00.908Z,26.90
2023-02-06T02:53:28.457Z,30.73
2023-02-06T02:55:56.011Z,29.50
2023-02-06T02:58:26.422Z,24.83
2023-02-06T03:00:56.028Z,29.33
2023-02-06T03:03:24.608Z,31.30
2023-02-06T03:05:56.644Z,34.07
2023-02-06T03:08:28.986Z,26.37
2023-02-06T03:11:03.781Z,29.50
2023-02-06T03:13:32.967Z,25.03
2023-02-06T03:16:03.321Z,28.47
2023-02-06T03:18:34.676Z,27.17
2023-02-06T03:21:02.879Z,29.40
2023-02-06T03:23:32.643Z,26.77
2023-02-06T03:26:01.773Z,25.10
2023-02-06T03:28:33.304Z,26.67
2023-02-06T03:31:03.555Z,25.40
2023-02-06T03:33:32.681Z,27.97
2023-02-06T03:36:00.447Z,25.33
2023-02-06T03:38:28.518Z,28.77
2023-02-06T03:40:58.868Z,27.53
2023-02-06T03:43:28.601Z,27.87
2023-02-06T03:45:58.115Z,24.67
2023-02-06T03:48:28.722Z,30.53
2023-02-06T03:50:56.674Z,28.90
2023-02-06T03:53:24.836Z,28.53
2023-02-06T03:55:54.708Z,23.70
2023-02-06T03:58:24.618Z,23.90
2023-02-06T04:00:52.880Z,29.57
2023-02-06T04:03:21.502Z,28.33
2023-02-06T04:05:48.876Z,31.60
2023-02-06T04:08:16.407Z,33.53
2023-02-06T04:10:43.757Z,28.13
2023-02-06T04:13:11.123Z,28.93
2023-02-06T04:15:39.798Z,30.23
2023-02-06T04:18:07.179Z,28.43
2023-02-06T04:20:40.685Z,34.10
2023-02-06T04:23:08.658Z,28.40
2023-02-06T04:25:36.340Z,30.53
2023-02-06T04:28:03.905Z,30.50
2023-02-06T04:30:31.288Z,29.50
2023-02-06T04:32:59.995Z,26.90
2023-02-06T04:35:27.318Z,29.10
2023-02-06T04:37:54.639Z,27.37
2023-02-06T04:40:22.035Z,23.73
2023-02-06T04:42:49.416Z,26.47
2023-02-06T04:45:16.823Z,25.73
2023-02-06T04:47:44.198Z,28.97
2023-02-06T04:50:13.198Z,24.70
2023-02-06T04:52:40.542Z,20.70
2023-02-06T04:55:08.305Z,22.43
2023-02-06T04:57:35.636Z,21.83
2023-02-06T05:00:03.012Z,25.47
2023-02-06T05:02:30.348Z,25.47
2023-02-06T05:04:57.698Z,24.80
2023-02-06T05:07:26.431Z,21.67
2023-02-06T05:09:53.743Z,20.40
2023-02-06T05:12:21.153Z,21.33
2023-02-06T05:14:48.481Z,23.97
2023-02-06T05:17:15.811Z,22.67
2023-02-06T05:19:43.339Z,20.73
2023-02-06T05:22:10.674Z,20.27
2023-02-06T05:24:39.770Z,21.40
2023-02-06T05:27:07.101Z,20.00
2023-02-06T05:29:34.428Z,19.70
2023-02-06T05:32:01.834Z,20.00
2023-02-06T05:34:29.206Z,18.83
2023-02-06T05:36:56.619Z,15.57
2023-02-06T05:39:24.230Z,19.67
2023-02-06T05:41:52.946Z,19.47
2023-02-06T05:44:20.289Z,16.10
2023-02-06T05:46:48.518Z,17.57
2023-02-06T05:49:16.018Z,16.50
2023-02-06T05:51:43.375Z,23.80
2023-02-06T05:54:10.697Z,30.00
2023-02-06T05:56:38.056Z,19.97
2023-02-06T05:59:06.734Z,37.87
2023-02-06T06:01:34.047Z,22.53
2023-02-06T06:04:01.407Z,28.80
2023-02-06T06:06:28.758Z,37.70
2023-02-06T06:08:56.177Z,25.27
2023-02-06T06:11:23.501Z,23.50
2023-02-06T06:13:50.883Z,23.33
2023-02-06T06:16:19.608Z,21.40
2023-02-06T06:18:46.991Z,21.00
2023-02-06T06:21:15.114Z,16.20
2023-02-06T06:23:42.445Z,19.07
2023-02-06T06:26:09.872Z,15.10
2023-02-06T06:28:38.501Z,18.40
2023-02-06T06:31:07.248Z,17.77
2023-02-06T06:33:35.980Z,25.73
2023-02-06T06:36:03.321Z,22.23
2023-02-06T06:38:30.648Z,22.40
2023-02-06T06:40:57.988Z,19.23
2023-02-06T06:43:25.578Z,20.40
2023-02-06T06:45:53.031Z,23.50
2023-02-06T06:48:20.400Z,19.37
2023-02-06T06:50:49.293Z,19.80
2023-02-06T06:53:16.642Z,17.50
2023-02-06T06:55:44.296Z,18.87
2023-02-06T06:58:11.752Z,21.40
2023-02-06T07:00:39.869Z,22.17
2023-02-06T07:03:07.351Z,18.73
2023-02-06T07:05:35.553Z,19.73
2023-02-06T07:08:04.466Z,17.37
2023-02-06T07:10:31.869Z,17.43
2023-02-06T07:12:59.198Z,19.23
2023-02-06T07:15:26.579Z,21.67
2023-02-06T07:17:53.978Z,19.23
2023-02-06T07:20:21.307Z,19.67
2023-02-06T07:22:50.197Z,19.07
2023-02-06T07:25:20.240Z,16.33
2023-02-06T07:27:47.714Z,17.13
2023-02-06T07:30:15.655Z,18.10
2023-02-06T07:32:42.989Z,20.40
2023-02-06T07:35:10.393Z,14.77
2023-02-06T07:37:37.730Z,16.27
2023-02-06T07:40:06.068Z,18.07
2023-02-06T07:42:34.729Z,14.40
2023-02-06T07:45:02.065Z,18.37
2023-02-06T07:47:29.395Z,18.10
2023-02-06T07:49:56.709Z,15.03
2023-02-06T07:52:24.061Z,19.07
2023-02-06T07:54:51.373Z,15.47
2023-02-06T07:57:19.071Z,14.87
2023-02-06T07:59:47.748Z,18.27
2023-02-06T08:02:15.063Z,17.80
2023-02-06T08:04:42.505Z,18.27
2023-02-06T08:07:14.758Z,16.57
2023-02-06T08:09:42.351Z,21.93
2023-02-06T08:12:11.859Z,19.10
2023-02-06T08:14:39.512Z,15.10
2023-02-06T08:17:08.601Z,18.37
2023-02-06T08:19:35.970Z,15.43
2023-02-06T08:22:03.297Z,17.90
2023-02-06T08:24:30.653Z,15.60
2023-02-06T08:26:57.987Z,12.70
2023-02-06T08:29:25.615Z,15.70
2023-02-06T08:31:53.248Z,16.30
2023-02-06T08:34:21.977Z,17.80
2023-02-06T08:36:49.292Z,15.40
2023-02-06T08:39:18.088Z,17.93
2023-02-06T08:41:45.660Z,11.20
2023-02-06T08:44:14.364Z,14.83
2023-02-06T08:46:41.753Z,14.73
2023-02-06T08:49:12.008Z,16.00
2023-02-06T08:51:40.759Z,16.97
2023-02-06T08:54:09.425Z,15.17
2023-02-06T08:56:37.926Z,14.73
2023-02-06T08:59:05.766Z,28.33
2023-02-06T09:01:34.947Z,20.00
2023-02-06T09:04:03.433Z,25.83
2023-02-06T09:06:31.918Z,19.57
2023-02-06T09:09:00.607Z,15.10
2023-02-06T09:11:27.982Z,20.70
2023-02-06T09:13:56.168Z,21.23
2023-02-06T09:16:24.291Z,15.63
2023-02-06T09:18:54.218Z,13.13
2023-02-06T09:21:22.550Z,11.30
2023-02-06T09:23:51.391Z,11.17
2023-02-06T09:26:23.019Z,13.83
2023-02-06T09:28:52.332Z,15.70
2023-02-06T09:31:19.682Z,16.07
2023-02-06T09:33:47.241Z,8.40
2023-02-06T09:36:16.130Z,11.67
2023-02-06T09:38:44.209Z,10.07
2023-02-06T09:41:14.325Z,10.67
2023-02-06T09:43:44.870Z,12.40
2023-02-06T09:46:14.730Z,12.33
2023-02-06T09:48:43.303Z,14.13
2023-02-06T09:51:16.372Z,11.33
2023-02-06T09:53:48.058Z,13.97
2023-02-06T09:56:18.184Z,11.90
2023-02-06T09:58:50.121Z,12.00
2023-02-06T10:01:20.425Z,11.93
2023-02-06T10:03:52.895Z,13.93
2023-02-06T10:06:21.525Z,13.47
2023-02-06T10:08:52.537Z,11.07
2023-02-06T10:11:22.386Z,13.73
2023-02-06T10:13:54.027Z,13.00
2023-02-06T10:16:31.193Z,16.00
2023-02-06T10:19:00.896Z,13.53
2023-02-06T10:21:31.454Z,11.47
2023-02-06T10:24:01.571Z,11.60
2023-02-06T10:26:29.519Z,11.43
2023-02-06T10:29:00.466Z,19.00
2023-02-06T10:31:36.597Z,12.73
2023-02-06T10:34:14.432Z,12.50
2023-02-06T10:36:47.106Z,9.73
2023-02-06T10:39:30.519Z,14.87
2023-02-06T10:42:00.749Z,22.93
2023-02-06T10:44:31.310Z,11.93
2023-02-06T10:46:58.805Z,11.63
2023-02-06T10:49:30.348Z,14.07
2023-02-06T10:51:59.147Z,10.00
2023-02-06T10:54:28.819Z,13.40
2023-02-06T10:56:59.004Z,15.03
2023-02-06T10:59:29.373Z,14.00
2023-02-06T11:02:01.902Z,10.83
2023-02-06T11:04:34.066Z,17.20
2023-02-06T11:07:02.403Z,13.67
2023-02-06T11:09:30.144Z,14.90
2023-02-06T11:11:58.120Z,16.83
2023-02-06T11:14:28.281Z,13.53
2023-02-06T11:16:56.906Z,13.37
2023-02-06T11:19:27.271Z,16.77
2023-02-06T11:21:56.385Z,13.77
2023-02-06T11:24:24.639Z,11.70
2023-02-06T11:26:53.389Z,10.20
2023-02-06T11:29:21.847Z,11.53
2023-02-06T11:31:50.775Z,11.17
2023-02-06T11:34:22.148Z,11.50
2023-02-06T11:36:53.861Z,11.10
2023-02-06T11:39:22.665Z,13.07
2023-02-06T11:41:57.459Z,12.30
2023-02-06T11:44:25.655Z,12.00
2023-02-06T11:46:53.005Z,10.60
2023-02-06T11:49:25.515Z,15.50
2023-02-06T11:51:54.998Z,13.53
2023-02-06T11:54:23.954Z,11.43
2023-02-06T11:56:58.884Z,11.67
2023-02-06T11:59:27.613Z,15.70
2023-02-06T12:01:55.311Z,7.93
2023-02-06T12:04:25.141Z,8.27
2023-02-06T12:07:02.020Z,10.53
2023-02-06T12:09:29.550Z,9.33
2023-02-06T12:11:59.890Z,10.73
2023-02-06T12:14:31.171Z,9.43
2023-02-06T12:16:59.988Z,7.50
2023-02-06T12:19:31.678Z,9.13
2023-02-06T12:22:03.227Z,8.60
2023-02-06T12:24:32.340Z,12.70
2023-02-06T12:27:01.649Z,10.67
2023-02-06T12:29:33.309Z,10.40
2023-02-06T12:32:05.635Z,10.27
2023-02-06T12:34:42.868Z,11.93
2023-02-06T12:37:15.107Z,8.87
2023-02-06T12:39:43.146Z,10.57
2023-02-06T12:42:28.453Z,8.73
2023-02-06T12:44:58.155Z,10.20
2023-02-06T12:47:29.033Z,8.60
2023-02-06T12:49:58.647Z,7.33
2023-02-06T12:52:30.918Z,10.23
2023-02-06T12:55:04.376Z,10.63
2023-02-06T12:57:32.397Z,12.87
2023-02-06T13:00:09.549Z,12.87
2023-02-06T13:02:51.959Z,8.70
2023-02-06T13:05:23.082Z,9.43
2023-02-06T13:07:52.414Z,9.37
2023-02-06T13:10:20.424Z,9.63
2023-02-06T13:12:53.834Z,11.73
2023-02-06T13:15:22.157Z,9.87
2023-02-06T13:17:51.200Z,12.53
2023-02-06T13:20:20.233Z,9.37
2023-02-06T13:22:49.336Z,10.27
2023-02-06T13:25:36.307Z,9.97
2023-02-06T13:28:28.785Z,14.37
2023-02-06T13:31:00.751Z,7.50
2023-02-06T13:33:38.798Z,11.67
2023-02-06T13:36:07.083Z,13.53
2023-02-06T13:38:38.066Z,8.97
2023-02-06T13:41:27.947Z,13.50
2023-02-06T13:43:57.784Z,11.47
2023-02-06T13:46:27.520Z,10.73
2023-02-06T13:49:06.220Z,14.93
2023-02-06T13:51:40.808Z,12.37
2023-02-06T13:54:23.093Z,8.20
2023-02-06T13:57:01.580Z,9.50
2023-02-06T13:59:31.030Z,9.23
2023-02-06T14:02:04.009Z,10.80
2023-02-06T14:04:33.346Z,7.67
2023-02-06T14:07:15.606Z,10.73
2023-02-06T14:09:53.464Z,8.87
2023-02-06T14:12:35.032Z,8.03
2023-02-06T14:15:07.953Z,7.77
2023-02-06T14:17:40.702Z,10.67
2023-02-06T14:20:14.810Z,8.40
2023-02-06T14:22:45.214Z,10.67
2023-02-06T14:25:17.149Z,10.13
2023-02-06T14:27:51.782Z,12.23
2023-02-06T14:30:25.712Z,7.07
2023-02-06T14:32:57.150Z,10.37
2023-02-06T14:35:45.639Z,8.27
2023-02-06T14:38:31.489Z,8.60
2023-02-06T14:40:59.562Z,6.67
2023-02-06T14:43:28.361Z,7.13
2023-02-06T14:46:06.944Z,7.07
2023-02-06T14:48:38.273Z,9.77
2023-02-06T14:51:06.474Z,9.43
2023-02-06T14:53:35.919Z,8.83
2023-02-06T14:56:07.631Z,6.23
2023-02-06T14:58:35.221Z,6.40
2023-02-06T15:01:14.915Z,6.47
2023-02-06T15:03:42.583Z,5.73
2023-02-06T15:06:11.102Z,9.07
2023-02-06T15:08:38.898Z,9.63
2023-02-06T15:11:07.462Z,8.33
2023-02-06T15:13:35.762Z,7.97
2023-02-06T15:16:04.730Z,7.97
2023-02-06T15:18:33.723Z,6.23
2023-02-06T15:21:02.765Z,8.77
2023-02-06T15:23:37.013Z,6.47
2023-02-06T15:26:06.232Z,6.77
2023-02-06T15:28:34.668Z,8.67
2023-02-06T15:31:02.510Z,6.97
2023-02-06T15:33:30.925Z,6.27
2023-02-06T15:36:01.267Z,9.00
2023-02-06T15:38:30.028Z,10.90
2023-02-06T15:40:58.905Z,6.63
2023-02-06T15:43:26.756Z,6.60
2023-02-06T15:45:55.648Z,5.87
2023-02-06T15:48:25.515Z,7.13
2023-02-06T15:50:56.665Z,7.37
2023-02-06T15:53:31.208Z,7.67
2023-02-06T15:55:58.646Z,7.63
2023-02-06T15:58:26.841Z,8.43
2023-02-06T16:00:55.655Z,5.40
2023-02-06T16:03:24.283Z,7.87
2023-02-06T16:05:52.457Z,7.30
2023-02-06T16:08:21.642Z,7.13
2023-02-06T16:10:51.444Z,9.23
2023-02-06T16:13:20.506Z,7.47
2023-02-06T16:16:02.271Z,7.33
2023-02-06T16:18:30.852Z,5.53
2023-02-06T16:21:11.853Z,9.97
2023-02-06T16:23:46.292Z,10.20
2023-02-06T16:26:17.475Z,8.77
2023-02-06T16:28:53.358Z,6.33
2023-02-06T16:31:20.959Z,5.73
2023-02-06T16:33:49.333Z,5.07
2023-02-06T16:36:17.629Z,6.47
2023-02-06T16:38:54.006Z,7.37
2023-02-06T16:41:32.907Z,8.23
2023-02-06T16:44:00.969Z,5.77
2023-02-06T16:46:28.609Z,5.07
2023-02-06T16:48:56.628Z,5.37
2023-02-06T16:51:26.201Z,6.33
2023-02-06T16:53:53.868Z,7.70
2023-02-06T16:56:21.886Z,5.37
2023-02-06T16:58:50.781Z,7.07
2023-02-06T17:01:21.971Z,9.20
2023-02-06T17:03:49.675Z,9.73
2023-02-06T17:06:19.946Z,9.20
2023-02-06T17:08:47.395Z,9.30
2023-02-06T17:11:14.958Z,7.10
2023-02-06T17:13:42.490Z,7.73
2023-02-06T17:16:14.725Z,6.40
2023-02-06T17:18:42.142Z,6.00
2023-02-06T17:21:12.097Z,6.97
2023-02-06T17:23:39.478Z,6.17
2023-02-06T17:26:06.890Z,6.70
2023-02-06T17:28:34.242Z,7.70
2023-02-06T17:31:01.698Z,8.90
2023-02-06T17:33:30.426Z,9.53
2023-02-06T17:35:57.853Z,7.60
2023-02-06T17:38:25.191Z,9.27
2023-02-06T17:40:52.566Z,7.87
2023-02-06T17:43:19.902Z,10.63
2023-02-06T17:45:47.824Z,11.70
2023-02-06T17:48:15.168Z,10.60
2023-02-06T17:50:44.058Z,16.20
2023-02-06T17:53:13.785Z,8.50
2023-02-06T17:55:41.458Z,9.93
2023-02-06T17:58:09.029Z,9.13
2023-02-06T18:00:36.679Z,9.37
2023-02-06T18:03:05.126Z,8.37
2023-02-06T18:05:32.523Z,7.73
2023-02-06T18:08:01.172Z,7.53
2023-02-06T18:10:28.508Z,10.20
2023-02-06T18:12:55.961Z,8.30
2023-02-06T18:15:23.306Z,8.37
2023-02-06T18:17:51.470Z,7.13
2023-02-06T18:20:19.665Z,8.83
2023-02-06T18:22:47.290Z,7.23
2023-02-06T18:25:16.540Z,7.17
2023-02-06T18:27:45.944Z,8.67
2023-02-06T18:30:14.419Z,6.50
2023-02-06T18:32:41.785Z,7.03
2023-02-06T18:35:09.375Z,5.93
2023-02-06T18:37:36.800Z,5.87
2023-02-06T18:40:04.453Z,7.40
2023-02-06T18:42:50.715Z,6.83
2023-02-06T18:45:18.193Z,8.20
2023-02-06T18:47:46.327Z,5.37
2023-02-06T18:50:14.058Z,7.20
2023-02-06T18:52:41.415Z,6.67
2023-02-06T18:55:09.231Z,7.67
2023-02-06T18:57:37.932Z,8.50
2023-02-06T19:00:05.898Z,8.27
2023-02-06T19:02:33.350Z,6.83
2023-02-06T19:05:00.929Z,7.53
2023-02-06T19:07:28.344Z,6.93
2023-02-06T19:09:59.034Z,5.63
2023-02-06T19:12:28.011Z,5.47
2023-02-06T19:14:56.830Z,6.90
2023-02-06T19:17:24.511Z,5.87
2023-02-06T19:19:51.846Z,7.07
2023-02-06T19:22:19.523Z,6.60
2023-02-06T19:24:46.872Z,4.90
2023-02-06T19:27:14.270Z,5.27
2023-02-06T19:29:42.114Z,5.87
2023-02-06T19:32:10.850Z,4.77
2023-02-06T19:34:39.680Z,5.13
2023-02-06T19:37:08.074Z,3.80
2023-02-06T19:39:36.904Z,4.30
2023-02-06T19:42:06.685Z,5.57
2023-02-06T19:44:34.562Z,4.00
2023-02-06T19:47:01.983Z,3.80
2023-02-06T19:49:30.703Z,4.07
2023-02-06T19:51:58.021Z,3.80
2023-02-06T19:54:25.354Z,3.00
2023-02-06T19:56:52.714Z,3.77
2023-02-06T19:59:20.887Z,3.50
2023-02-06T20:01:48.900Z,2.70
2023-02-06T20:04:16.643Z,3.17
2023-02-06T20:06:45.570Z,4.50
2023-02-06T20:09:14.110Z,4.27
2023-02-06T20:11:42.018Z,3.03
2023-02-06T20:14:09.672Z,4.37
2023-02-06T20:16:39.129Z,4.07
2023-02-06T20:19:07.372Z,4.43
2023-02-06T20:21:38.969Z,3.20
2023-02-06T20:24:09.020Z,3.23
2023-02-06T20:26:38.180Z,3.30
2023-02-06T20:29:06.253Z,4.37
2023-02-06T20:31:34.332Z,4.53
2023-02-06T20:34:01.995Z,5.03
2023-02-06T20:36:29.982Z,4.33
2023-02-06T20:38:58.148Z,4.17
2023-02-06T20:41:27.739Z,5.07
2023-02-06T20:43:56.607Z,4.37
2023-02-06T20:46:23.988Z,3.47
2023-02-06T20:48:55.310Z,3.63
2023-02-06T20:51:22.717Z,3.40
2023-02-06T20:53:50.290Z,4.57
2023-02-06T20:56:18.235Z,3.90
2023-02-06T20:58:47.217Z,3.53
2023-02-06T21:01:15.324Z,3.67
2023-02-06T21:03:42.653Z,3.07
2023-02-06T21:06:10.038Z,3.67
2023-02-06T21:08:37.383Z,3.63
2023-02-06T21:11:05.267Z,4.73
2023-02-06T21:13:32.612Z,4.20
2023-02-06T21:16:01.718Z,4.80
2023-02-06T21:18:29.977Z,3.30
2023-02-06T21:20:57.829Z,4.00
2023-02-06T21:23:25.506Z,3.23
2023-02-06T21:25:53.293Z,3.43
2023-02-06T21:28:20.867Z,2.90
2023-02-06T21:30:49.046Z,4.23
2023-02-06T21:33:18.106Z,2.93
2023-02-06T21:35:49.767Z,3.53
2023-02-06T21:38:17.267Z,3.80
2023-02-06T21:40:44.820Z,3.40
2023-02-06T21:43:12.205Z,2.73
2023-02-06T21:45:40.033Z,3.87
2023-02-06T21:48:07.559Z,2.80
2023-02-06T21:50:37.565Z,3.00
2023-02-06T21:53:05.065Z,3.00
2023-02-06T21:55:32.493Z,5.17
2023-02-06T21:58:00.897Z,3.53
2023-02-06T22:00:28.585Z,3.27
2023-02-06T22:02:56.006Z,4.17
2023-02-06T22:05:23.935Z,4.77
2023-02-06T22:07:52.566Z,3.53
2023-02-06T22:10:19.920Z,3.97
2023-02-06T22:12:49.059Z,3.90
2023-02-06T22:15:16.513Z,4.10
2023-02-06T22:17:43.880Z,4.87
2023-02-06T22:20:11.438Z,4.20
2023-02-06T22:22:39.551Z,4.93
2023-02-06T22:25:08.986Z,4.87
2023-02-06T22:27:36.561Z,6.60
2023-02-06T22:30:04.081Z,6.07
2023-02-06T22:32:31.441Z,4.93
2023-02-06T22:34:59.345Z,7.00
2023-02-06T22:37:26.902Z,5.70
2023-02-06T22:39:55.409Z,5.40
2023-02-06T22:42:24.655Z,5.57
2023-02-06T22:44:51.974Z,6.30
2023-02-06T22:47:19.333Z,5.60
2023-02-06T22:49:46.824Z,6.30
2023-02-06T22:52:28.089Z,6.07
2023-02-06T22:54:55.406Z,6.27
2023-02-06T22:57:24.687Z,6.33
2023-02-06T22:59:51.993Z,6.77
2023-02-06T23:02:19.422Z,6.77
2023-02-06T23:04:46.794Z,5.60
2023-02-06T23:07:14.125Z,9.23
2023-02-06T23:09:41.480Z,7.53
2023-02-06T23:12:09.614Z,9.23
2023-02-06T23:14:38.306Z,9.13
2023-02-06T23:17:05.650Z,8.57
2023-02-06T23:19:33.166Z,8.83
2023-02-06T23:22:00.522Z,9.33
2023-02-06T23:24:27.880Z,10.10
2023-02-06T23:26:55.256Z,8.60
2023-02-06T23:29:23.838Z,9.20
2023-02-06T23:31:52.638Z,10.17
2023-02-06T23:34:20.380Z,9.73
2023-02-06T23:36:47.967Z,12.00
2023-02-06T23:39:15.340Z,11.30
2023-02-06T23:41:42.687Z,14.13
2023-02-06T23:44:11.120Z,10.27
2023-02-06T23:46:39.153Z,9.47
2023-02-06T23:49:07.880Z,12.57
2023-02-06T23:51:35.791Z,9.43
2023-02-06T23:54:03.432Z,11.03
2023-02-06T23:56:32.027Z,11.57
2023-02-06T23:59:00.476Z,10.23
